sensor_id;sensor_type;location;lat;lon;timestamp;pressure;altitude;pressure_sealevel;temperature;humidity
10464;BME280;5279;42.048;24.638;2022-08-01T00:02:19;97215.91;;;23.56;56.34
10464;BME280;5279;42.048;24.638;2022-08-01T00:04:46;97209.94;;;23.54;56.37
10464;BME280;5279;42.048;24.638;2022-08-01T00:07:13;97209.81;;;23.61;56.41
10464;BME280;5279;42.048;24.638;2022-08-01T00:09:40;97210.63;;;23.61;55.79
10464;BME280;5279;42.048;24.638;2022-08-01T00:12:08;97198.75;;;23.51;56.16
10464;BME280;5279;42.048;24.638;2022-08-01T00:14:35;97207.22;;;23.66;55.99
10464;BME280;5279;42.048;24.638;2022-08-01T00:17:02;97204.75;;;23.64;56.22
10464;BME280;5279;42.048;24.638;2022-08-01T00:19:30;97210.97;;;23.53;56.81
10464;BME280;5279;42.048;24.638;2022-08-01T00:21:58;97208.50;;;23.63;55.86
10464;BME280;5279;42.048;24.638;2022-08-01T00:24:25;97214.63;;;23.47;56.74
10464;BME280;5279;42.048;24.638;2022-08-01T00:26:52;97214.16;;;23.50;56.36
10464;BME280;5279;42.048;24.638;2022-08-01T00:29:19;97195.59;;;23.42;56.08
10464;BME280;5279;42.048;24.638;2022-08-01T00:31:46;97216.94;;;23.32;56.46
10464;BME280;5279;42.048;24.638;2022-08-01T00:34:13;97186.84;;;23.17;56.70
10464;BME280;5279;42.048;24.638;2022-08-01T00:36:41;97198.84;;;23.21;56.83
10464;BME280;5279;42.048;24.638;2022-08-01T00:39:08;97201.53;;;23.21;57.38
10464;BME280;5279;42.048;24.638;2022-08-01T00:41:35;97210.59;;;23.15;58.14
10464;BME280;5279;42.048;24.638;2022-08-01T00:44:04;97207.41;;;22.95;57.43
10464;BME280;5279;42.048;24.638;2022-08-01T00:46:31;97217.38;;;23.06;57.59
10464;BME280;5279;42.048;24.638;2022-08-01T00:49:01;97205.16;;;22.92;58.49
10464;BME280;5279;42.048;24.638;2022-08-01T00:51:28;97202.66;;;22.78;58.89
10464;BME280;5279;42.048;24.638;2022-08-01T00:53:57;97219.19;;;22.70;58.78
10464;BME280;5279;42.048;24.638;2022-08-01T00:56:25;97209.56;;;22.74;58.79
10464;BME280;5279;42.048;24.638;2022-08-01T00:58:54;97206.38;;;22.66;58.53
10464;BME280;5279;42.048;24.638;2022-08-01T01:01:22;97207.78;;;22.68;58.94
10464;BME280;5279;42.048;24.638;2022-08-01T01:03:50;97201.84;;;22.60;63.24
10464;BME280;5279;42.048;24.638;2022-08-01T01:06:28;97206.19;;;22.49;59.59
10464;BME280;5279;42.048;24.638;2022-08-01T01:09:14;97193.34;;;22.45;59.87
10464;BME280;5279;42.048;24.638;2022-08-01T01:11:57;97215.03;;;22.38;60.93
10464;BME280;5279;42.048;24.638;2022-08-01T01:14:31;97195.34;;;22.19;61.38
10464;BME280;5279;42.048;24.638;2022-08-01T01:17:03;97212.16;;;22.21;60.49
10464;BME280;5279;42.048;24.638;2022-08-01T01:19:37;97213.56;;;22.24;60.38
10464;BME280;5279;42.048;24.638;2022-08-01T01:22:19;97194.84;;;22.11;60.25
10464;BME280;5279;42.048;24.638;2022-08-01T01:25:02;97204.34;;;22.13;59.30
10464;BME280;5279;42.048;24.638;2022-08-01T01:27:45;97196.25;;;22.13;59.35
10464;BME280;5279;42.048;24.638;2022-08-01T01:30:18;97189.69;;;22.09;59.53
10464;BME280;5279;42.048;24.638;2022-08-01T01:32:47;97195.09;;;22.09;60.67
10464;BME280;5279;42.048;24.638;2022-08-01T01:35:18;97201.91;;;22.12;59.64
10464;BME280;5279;42.048;24.638;2022-08-01T01:37:47;97199.19;;;22.12;60.38
10464;BME280;5279;42.048;24.638;2022-08-01T01:40:17;97198.69;;;22.03;60.48
10464;BME280;5279;42.048;24.638;2022-08-01T01:42:47;97203.38;;;22.08;59.25
10464;BME280;5279;42.048;24.638;2022-08-01T01:45:18;97202.66;;;22.19;59.30
10464;BME280;5279;42.048;24.638;2022-08-01T01:47:45;97202.03;;;22.17;58.84
10464;BME280;5279;42.048;24.638;2022-08-01T01:50:13;97187.94;;;22.15;58.73
10464;BME280;5279;42.048;24.638;2022-08-01T01:52:42;97197.47;;;22.17;58.82
10464;BME280;5279;42.048;24.638;2022-08-01T01:55:12;97195.34;;;22.19;59.32
10464;BME280;5279;42.048;24.638;2022-08-01T01:57:42;97205.22;;;22.25;59.33
10464;BME280;5279;42.048;24.638;2022-08-01T02:00:12;97206.34;;;22.36;60.05
10464;BME280;5279;42.048;24.638;2022-08-01T02:02:41;97189.88;;;22.26;58.42
10464;BME280;5279;42.048;24.638;2022-08-01T02:05:10;97218.34;;;22.40;57.95
10464;BME280;5279;42.048;24.638;2022-08-01T02:07:38;97198.84;;;22.38;58.26
10464;BME280;5279;42.048;24.638;2022-08-01T02:10:06;97195.94;;;22.40;57.25
10464;BME280;5279;42.048;24.638;2022-08-01T02:12:36;97206.63;;;22.46;57.68
10464;BME280;5279;42.048;24.638;2022-08-01T02:15:06;97213.22;;;22.50;56.43
10464;BME280;5279;42.048;24.638;2022-08-01T02:17:39;97210.84;;;22.42;57.48
10464;BME280;5279;42.048;24.638;2022-08-01T02:20:10;97209.78;;;22.43;57.27
10464;BME280;5279;42.048;24.638;2022-08-01T02:22:42;97212.78;;;22.35;57.28
10464;BME280;5279;42.048;24.638;2022-08-01T02:25:20;97211.91;;;22.23;58.10
10464;BME280;5279;42.048;24.638;2022-08-01T02:27:55;97213.13;;;22.27;57.52
10464;BME280;5279;42.048;24.638;2022-08-01T02:30:28;97206.16;;;22.19;57.63
10464;BME280;5279;42.048;24.638;2022-08-01T02:33:00;97208.25;;;22.17;58.86
10464;BME280;5279;42.048;24.638;2022-08-01T02:35:32;97209.25;;;22.05;60.32
10464;BME280;5279;42.048;24.638;2022-08-01T02:38:01;97206.41;;;22.00;59.27
10464;BME280;5279;42.048;24.638;2022-08-01T02:40:55;97208.56;;;21.73;60.06
10464;BME280;5279;42.048;24.638;2022-08-01T02:43:26;97205.47;;;21.69;59.92
10464;BME280;5279;42.048;24.638;2022-08-01T02:45:59;97211.00;;;21.56;60.51
10464;BME280;5279;42.048;24.638;2022-08-01T02:48:27;97216.00;;;21.53;61.91
10464;BME280;5279;42.048;24.638;2022-08-01T02:51:00;97208.28;;;21.38;61.33
10464;BME280;5279;42.048;24.638;2022-08-01T02:53:31;97203.63;;;21.27;63.02
10464;BME280;5279;42.048;24.638;2022-08-01T02:56:03;97207.38;;;21.26;63.45
10464;BME280;5279;42.048;24.638;2022-08-01T02:58:31;97215.13;;;21.16;62.36
10464;BME280;5279;42.048;24.638;2022-08-01T03:01:01;97210.25;;;21.00;63.93
10464;BME280;5279;42.048;24.638;2022-08-01T03:03:29;97207.19;;;20.96;63.49
10464;BME280;5279;42.048;24.638;2022-08-01T03:05:59;97216.19;;;20.84;62.54
10464;BME280;5279;42.048;24.638;2022-08-01T03:08:29;97213.94;;;20.81;64.32
10464;BME280;5279;42.048;24.638;2022-08-01T03:10:58;97200.47;;;20.81;63.49
10464;BME280;5279;42.048;24.638;2022-08-01T03:13:27;97189.34;;;20.70;63.39
10464;BME280;5279;42.048;24.638;2022-08-01T03:15:57;97208.00;;;20.72;64.22
10464;BME280;5279;42.048;24.638;2022-08-01T03:18:25;97194.41;;;20.60;65.80
10464;BME280;5279;42.048;24.638;2022-08-01T03:20:55;97185.38;;;20.48;66.09
10464;BME280;5279;42.048;24.638;2022-08-01T03:23:24;97190.69;;;20.55;63.78
10464;BME280;5279;42.048;24.638;2022-08-01T03:25:52;97190.25;;;20.58;62.81
10464;BME280;5279;42.048;24.638;2022-08-01T03:28:21;97189.88;;;20.54;62.93
10464;BME280;5279;42.048;24.638;2022-08-01T03:30:49;97187.78;;;20.56;63.75
10464;BME280;5279;42.048;24.638;2022-08-01T03:33:16;97190.66;;;20.61;62.38
10464;BME280;5279;42.048;24.638;2022-08-01T03:35:47;97199.78;;;20.60;63.22
10464;BME280;5279;42.048;24.638;2022-08-01T03:38:18;97193.53;;;20.66;60.94
10464;BME280;5279;42.048;24.638;2022-08-01T03:40:52;97198.47;;;20.69;60.91
10464;BME280;5279;42.048;24.638;2022-08-01T03:43:24;97210.78;;;20.84;59.60
10464;BME280;5279;42.048;24.638;2022-08-01T03:45:58;97198.13;;;20.91;58.65
10464;BME280;5279;42.048;24.638;2022-08-01T03:48:29;97196.50;;;21.08;57.46
10464;BME280;5279;42.048;24.638;2022-08-01T03:50:59;97197.13;;;21.10;58.63
10464;BME280;5279;42.048;24.638;2022-08-01T03:53:30;97190.72;;;21.11;58.62
10464;BME280;5279;42.048;24.638;2022-08-01T03:56:01;97204.97;;;21.18;57.27
10464;BME280;5279;42.048;24.638;2022-08-01T03:58:29;97203.91;;;21.19;56.48
10464;BME280;5279;42.048;24.638;2022-08-01T04:00:57;97195.09;;;21.30;55.52
10464;BME280;5279;42.048;24.638;2022-08-01T04:03:25;97186.19;;;21.30;54.41
10464;BME280;5279;42.048;24.638;2022-08-01T04:05:53;97188.75;;;21.43;53.40
10464;BME280;5279;42.048;24.638;2022-08-01T04:08:20;97190.31;;;21.50;54.02
10464;BME280;5279;42.048;24.638;2022-08-01T04:10:47;97173.38;;;21.43;53.54
10464;BME280;5279;42.048;24.638;2022-08-01T04:13:15;97193.03;;;21.68;54.10
10464;BME280;5279;42.048;24.638;2022-08-01T04:15:42;97195.53;;;21.70;51.37
10464;BME280;5279;42.048;24.638;2022-08-01T04:18:09;97180.06;;;21.77;51.64
10464;BME280;5279;42.048;24.638;2022-08-01T04:20:36;97185.41;;;21.84;51.43
10464;BME280;5279;42.048;24.638;2022-08-01T04:23:03;97183.63;;;21.96;48.98
10464;BME280;5279;42.048;24.638;2022-08-01T04:25:33;97192.16;;;22.11;49.00
10464;BME280;5279;42.048;24.638;2022-08-01T04:28:02;97189.16;;;22.19;49.28
10464;BME280;5279;42.048;24.638;2022-08-01T04:30:34;97183.00;;;22.12;49.58
10464;BME280;5279;42.048;24.638;2022-08-01T04:33:04;97184.28;;;22.39;47.33
10464;BME280;5279;42.048;24.638;2022-08-01T04:35:34;97182.91;;;22.48;47.47
10464;BME280;5279;42.048;24.638;2022-08-01T04:38:03;97185.19;;;22.63;46.01
10464;BME280;5279;42.048;24.638;2022-08-01T04:40:31;97176.31;;;22.74;46.18
10464;BME280;5279;42.048;24.638;2022-08-01T04:42:59;97179.53;;;22.82;44.97
10464;BME280;5279;42.048;24.638;2022-08-01T04:45:27;97181.69;;;23.04;45.67
10464;BME280;5279;42.048;24.638;2022-08-01T04:47:56;97180.75;;;23.10;44.84
10464;BME280;5279;42.048;24.638;2022-08-01T04:50:25;97183.81;;;23.25;43.26
10464;BME280;5279;42.048;24.638;2022-08-01T04:52:52;97179.84;;;23.39;46.38
10464;BME280;5279;42.048;24.638;2022-08-01T04:55:20;97184.16;;;23.28;44.52
10464;BME280;5279;42.048;24.638;2022-08-01T04:57:47;97182.97;;;23.36;49.32
10464;BME280;5279;42.048;24.638;2022-08-01T05:00:15;97189.69;;;23.45;48.69
10464;BME280;5279;42.048;24.638;2022-08-01T05:02:43;97171.34;;;23.47;47.63
10464;BME280;5279;42.048;24.638;2022-08-01T05:05:11;97182.31;;;23.52;42.40
10464;BME280;5279;42.048;24.638;2022-08-01T05:07:38;97180.63;;;23.63;48.80
10464;BME280;5279;42.048;24.638;2022-08-01T05:10:06;97174.75;;;23.54;46.32
10464;BME280;5279;42.048;24.638;2022-08-01T05:12:33;97176.03;;;23.63;47.17
10464;BME280;5279;42.048;24.638;2022-08-01T05:15:01;97175.09;;;23.69;48.41
10464;BME280;5279;42.048;24.638;2022-08-01T05:17:28;97178.38;;;23.71;47.27
10464;BME280;5279;42.048;24.638;2022-08-01T05:19:55;97183.06;;;23.87;44.67
10464;BME280;5279;42.048;24.638;2022-08-01T05:22:23;97180.56;;;23.98;43.05
10464;BME280;5279;42.048;24.638;2022-08-01T05:24:50;97188.09;;;24.07;40.40
10464;BME280;5279;42.048;24.638;2022-08-01T05:27:18;97186.50;;;24.23;40.11
10464;BME280;5279;42.048;24.638;2022-08-01T05:29:44;97178.38;;;24.34;40.55
10464;BME280;5279;42.048;24.638;2022-08-01T05:32:11;97188.03;;;24.30;38.94
10464;BME280;5279;42.048;24.638;2022-08-01T05:34:38;97191.84;;;24.46;41.05
10464;BME280;5279;42.048;24.638;2022-08-01T05:37:05;97199.25;;;24.51;40.31
10464;BME280;5279;42.048;24.638;2022-08-01T05:39:34;97191.38;;;24.49;39.98
10464;BME280;5279;42.048;24.638;2022-08-01T05:42:01;97185.28;;;24.42;40.87
10464;BME280;5279;42.048;24.638;2022-08-01T05:44:28;97199.06;;;24.40;38.38
10464;BME280;5279;42.048;24.638;2022-08-01T05:46:55;97195.47;;;24.52;39.73
10464;BME280;5279;42.048;24.638;2022-08-01T05:49:22;97199.78;;;24.64;39.62
10464;BME280;5279;42.048;24.638;2022-08-01T05:51:49;97204.31;;;24.75;39.09
10464;BME280;5279;42.048;24.638;2022-08-01T05:54:15;97203.41;;;24.70;38.05
10464;BME280;5279;42.048;24.638;2022-08-01T05:56:44;97194.06;;;24.77;38.00
10464;BME280;5279;42.048;24.638;2022-08-01T05:59:11;97194.19;;;24.82;38.74
10464;BME280;5279;42.048;24.638;2022-08-01T06:01:37;97186.72;;;24.89;38.25
10464;BME280;5279;42.048;24.638;2022-08-01T06:04:04;97198.31;;;25.02;38.33
10464;BME280;5279;42.048;24.638;2022-08-01T06:06:31;97182.28;;;25.17;39.47
10464;BME280;5279;42.048;24.638;2022-08-01T06:08:58;97191.88;;;25.41;37.30
10464;BME280;5279;42.048;24.638;2022-08-01T06:11:25;97187.22;;;25.53;37.90
10464;BME280;5279;42.048;24.638;2022-08-01T06:13:53;97187.22;;;25.53;35.02
10464;BME280;5279;42.048;24.638;2022-08-01T06:16:20;97181.66;;;25.48;35.43
10464;BME280;5279;42.048;24.638;2022-08-01T06:18:47;97183.09;;;25.50;35.78
10464;BME280;5279;42.048;24.638;2022-08-01T06:21:14;97177.63;;;25.67;37.03
10464;BME280;5279;42.048;24.638;2022-08-01T06:23:41;97184.38;;;25.65;36.81
10464;BME280;5279;42.048;24.638;2022-08-01T06:26:08;97195.06;;;25.71;35.91
10464;BME280;5279;42.048;24.638;2022-08-01T06:28:35;97174.97;;;25.72;36.17
10464;BME280;5279;42.048;24.638;2022-08-01T06:31:03;97178.19;;;25.69;37.05
10464;BME280;5279;42.048;24.638;2022-08-01T06:33:30;97179.09;;;25.75;36.21
10464;BME280;5279;42.048;24.638;2022-08-01T06:35:57;97173.84;;;25.68;35.25
10464;BME280;5279;42.048;24.638;2022-08-01T06:38:24;97169.06;;;25.75;36.05
10464;BME280;5279;42.048;24.638;2022-08-01T06:40:51;97174.56;;;25.80;37.14
10464;BME280;5279;42.048;24.638;2022-08-01T06:43:18;97177.34;;;25.85;35.36
10464;BME280;5279;42.048;24.638;2022-08-01T06:45:45;97185.84;;;25.94;36.87
10464;BME280;5279;42.048;24.638;2022-08-01T06:48:13;97163.56;;;26.14;38.47
10464;BME280;5279;42.048;24.638;2022-08-01T06:50:40;97173.03;;;26.33;36.54
10464;BME280;5279;42.048;24.638;2022-08-01T06:53:07;97162.94;;;26.50;35.75
10464;BME280;5279;42.048;24.638;2022-08-01T06:55:34;97160.91;;;26.40;34.98
10464;BME280;5279;42.048;24.638;2022-08-01T06:58:00;97158.56;;;26.49;34.56
10464;BME280;5279;42.048;24.638;2022-08-01T07:00:27;97153.16;;;26.54;34.82
10464;BME280;5279;42.048;24.638;2022-08-01T07:02:56;97165.53;;;26.40;34.55
10464;BME280;5279;42.048;24.638;2022-08-01T07:05:25;97149.09;;;26.30;34.58
10464;BME280;5279;42.048;24.638;2022-08-01T07:07:53;97154.25;;;26.53;36.44
10464;BME280;5279;42.048;24.638;2022-08-01T07:10:20;97154.13;;;26.70;34.75
10464;BME280;5279;42.048;24.638;2022-08-01T07:12:47;97158.19;;;26.94;35.83
10464;BME280;5279;42.048;24.638;2022-08-01T07:15:14;97149.38;;;26.55;33.28
10464;BME280;5279;42.048;24.638;2022-08-01T07:17:42;97172.19;;;26.54;34.38
10464;BME280;5279;42.048;24.638;2022-08-01T07:20:11;97150.88;;;26.41;34.99
10464;BME280;5279;42.048;24.638;2022-08-01T07:22:42;97155.88;;;26.54;33.67
10464;BME280;5279;42.048;24.638;2022-08-01T07:25:09;97160.94;;;26.72;34.67
10464;BME280;5279;42.048;24.638;2022-08-01T07:27:36;97163.91;;;26.92;35.15
10464;BME280;5279;42.048;24.638;2022-08-01T07:30:05;97152.53;;;27.00;34.63
10464;BME280;5279;42.048;24.638;2022-08-01T07:32:32;97158.31;;;27.09;35.26
10464;BME280;5279;42.048;24.638;2022-08-01T07:35:02;97146.16;;;27.22;34.39
10464;BME280;5279;42.048;24.638;2022-08-01T07:37:29;97151.06;;;27.20;35.49
10464;BME280;5279;42.048;24.638;2022-08-01T07:39:57;97139.16;;;27.31;35.38
10464;BME280;5279;42.048;24.638;2022-08-01T07:42:24;97138.56;;;27.60;34.06
10464;BME280;5279;42.048;24.638;2022-08-01T07:44:50;97140.06;;;27.88;36.68
10464;BME280;5279;42.048;24.638;2022-08-01T07:47:23;97140.06;;;27.88;33.87
10464;BME280;5279;42.048;24.638;2022-08-01T07:49:50;97123.72;;;27.88;34.25
10464;BME280;5279;42.048;24.638;2022-08-01T07:52:17;97136.25;;;27.89;34.29
10464;BME280;5279;42.048;24.638;2022-08-01T07:54:44;97129.53;;;28.07;33.68
10464;BME280;5279;42.048;24.638;2022-08-01T07:57:12;97139.16;;;28.30;33.52
10464;BME280;5279;42.048;24.638;2022-08-01T07:59:39;97130.19;;;28.49;32.29
10464;BME280;5279;42.048;24.638;2022-08-01T08:02:06;97129.94;;;28.61;32.54
10464;BME280;5279;42.048;24.638;2022-08-01T08:04:33;97132.66;;;28.61;33.93
10464;BME280;5279;42.048;24.638;2022-08-01T08:06:59;97133.53;;;28.71;34.33
10464;BME280;5279;42.048;24.638;2022-08-01T08:09:26;97119.09;;;28.86;33.37
10464;BME280;5279;42.048;24.638;2022-08-01T08:11:54;97116.38;;;28.81;32.48
10464;BME280;5279;42.048;24.638;2022-08-01T08:14:22;97125.34;;;29.07;34.20
10464;BME280;5279;42.048;24.638;2022-08-01T08:16:49;97121.81;;;28.71;32.02
10464;BME280;5279;42.048;24.638;2022-08-01T08:19:16;97124.28;;;28.88;33.47
10464;BME280;5279;42.048;24.638;2022-08-01T08:21:43;97135.16;;;29.13;34.20
10464;BME280;5279;42.048;24.638;2022-08-01T08:24:10;97105.44;;;29.32;33.69
10464;BME280;5279;42.048;24.638;2022-08-01T08:26:47;97112.00;;;29.36;34.41
10464;BME280;5279;42.048;24.638;2022-08-01T08:29:13;97104.81;;;29.55;33.32
10464;BME280;5279;42.048;24.638;2022-08-01T08:31:43;97116.00;;;29.68;32.26
10464;BME280;5279;42.048;24.638;2022-08-01T08:34:10;97107.56;;;29.60;32.91
10464;BME280;5279;42.048;24.638;2022-08-01T08:36:37;97116.84;;;29.59;33.50
10464;BME280;5279;42.048;24.638;2022-08-01T08:39:06;97117.91;;;29.73;33.09
10464;BME280;5279;42.048;24.638;2022-08-01T08:41:33;97108.88;;;29.72;31.17
10464;BME280;5279;42.048;24.638;2022-08-01T08:44:01;97113.00;;;29.55;31.02
10464;BME280;5279;42.048;24.638;2022-08-01T08:46:28;97105.34;;;29.67;31.33
10464;BME280;5279;42.048;24.638;2022-08-01T08:49:00;97117.88;;;29.78;31.84
10464;BME280;5279;42.048;24.638;2022-08-01T08:51:28;97099.22;;;30.05;33.60
10464;BME280;5279;42.048;24.638;2022-08-01T08:53:57;97102.38;;;30.27;31.71
10464;BME280;5279;42.048;24.638;2022-08-01T08:56:25;97107.28;;;30.30;31.02
10464;BME280;5279;42.048;24.638;2022-08-01T08:58:55;97097.78;;;30.62;31.41
10464;BME280;5279;42.048;24.638;2022-08-01T09:01:23;97103.69;;;30.79;30.57
10464;BME280;5279;42.048;24.638;2022-08-01T09:03:51;97100.63;;;30.47;29.93
10464;BME280;5279;42.048;24.638;2022-08-01T09:06:19;97105.06;;;30.32;30.02
10464;BME280;5279;42.048;24.638;2022-08-01T09:08:46;97087.06;;;30.26;31.26
10464;BME280;5279;42.048;24.638;2022-08-01T09:11:13;97097.41;;;30.34;31.65
10464;BME280;5279;42.048;24.638;2022-08-01T09:13:40;97095.66;;;30.54;31.02
10464;BME280;5279;42.048;24.638;2022-08-01T09:16:07;97093.91;;;30.73;32.20
10464;BME280;5279;42.048;24.638;2022-08-01T09:18:35;97093.72;;;30.93;29.11
10464;BME280;5279;42.048;24.638;2022-08-01T09:21:10;97094.25;;;31.00;30.95
10464;BME280;5279;42.048;24.638;2022-08-01T09:23:41;97088.91;;;30.80;30.51
10464;BME280;5279;42.048;24.638;2022-08-01T09:26:10;97077.56;;;30.63;31.01
10464;BME280;5279;42.048;24.638;2022-08-01T09:28:41;97079.66;;;30.71;33.09
10464;BME280;5279;42.048;24.638;2022-08-01T09:31:09;97064.25;;;30.51;31.27
10464;BME280;5279;42.048;24.638;2022-08-01T09:33:52;97068.16;;;30.74;31.85
10464;BME280;5279;42.048;24.638;2022-08-01T09:36:20;97057.53;;;30.67;31.48
10464;BME280;5279;42.048;24.638;2022-08-01T09:38:48;97076.28;;;30.84;32.96
10464;BME280;5279;42.048;24.638;2022-08-01T09:41:15;97072.59;;;30.65;29.46
10464;BME280;5279;42.048;24.638;2022-08-01T09:43:49;97063.00;;;30.28;29.51
10464;BME280;5279;42.048;24.638;2022-08-01T09:46:16;97062.03;;;30.09;30.43
10464;BME280;5279;42.048;24.638;2022-08-01T09:49:05;97064.78;;;30.09;31.56
10464;BME280;5279;42.048;24.638;2022-08-01T09:51:34;97065.28;;;30.55;30.84
10464;BME280;5279;42.048;24.638;2022-08-01T09:54:04;97064.31;;;30.75;30.15
10464;BME280;5279;42.048;24.638;2022-08-01T09:56:38;97059.00;;;30.88;31.27
10464;BME280;5279;42.048;24.638;2022-08-01T09:59:06;97061.53;;;30.80;29.26
10464;BME280;5279;42.048;24.638;2022-08-01T10:01:48;97062.78;;;30.64;30.80
10464;BME280;5279;42.048;24.638;2022-08-01T10:04:18;97064.97;;;30.62;30.81
10464;BME280;5279;42.048;24.638;2022-08-01T10:06:47;97054.44;;;30.79;31.12
10464;BME280;5279;42.048;24.638;2022-08-01T10:09:27;97051.72;;;30.79;29.91
10464;BME280;5279;42.048;24.638;2022-08-01T10:11:54;97057.03;;;30.99;30.43
10464;BME280;5279;42.048;24.638;2022-08-01T10:14:22;97043.38;;;31.47;31.30
10464;BME280;5279;42.048;24.638;2022-08-01T10:16:51;97044.22;;;31.71;29.65
10464;BME280;5279;42.048;24.638;2022-08-01T10:19:22;97049.28;;;31.82;30.64
10464;BME280;5279;42.048;24.638;2022-08-01T10:21:50;97040.75;;;31.84;28.82
10464;BME280;5279;42.048;24.638;2022-08-01T10:24:19;97050.41;;;32.00;31.51
10464;BME280;5279;42.048;24.638;2022-08-01T10:26:52;97054.78;;;32.01;30.37
10464;BME280;5279;42.048;24.638;2022-08-01T10:29:21;97059.81;;;32.18;28.51
10464;BME280;5279;42.048;24.638;2022-08-01T10:31:49;97036.38;;;32.25;30.42
10464;BME280;5279;42.048;24.638;2022-08-01T10:34:17;97049.94;;;32.35;29.62
10464;BME280;5279;42.048;24.638;2022-08-01T10:36:46;97047.88;;;32.65;30.73
10464;BME280;5279;42.048;24.638;2022-08-01T10:39:13;97052.22;;;32.66;28.73
10464;BME280;5279;42.048;24.638;2022-08-01T10:41:41;97054.56;;;32.59;30.34
10464;BME280;5279;42.048;24.638;2022-08-01T10:44:09;97047.94;;;32.41;29.29
10464;BME280;5279;42.048;24.638;2022-08-01T10:46:39;97052.91;;;32.58;29.58
10464;BME280;5279;42.048;24.638;2022-08-01T10:49:11;97040.97;;;32.48;29.56
10464;BME280;5279;42.048;24.638;2022-08-01T10:51:39;97047.72;;;32.56;28.48
10464;BME280;5279;42.048;24.638;2022-08-01T10:54:08;97040.16;;;32.48;29.84
10464;BME280;5279;42.048;24.638;2022-08-01T10:56:43;97024.88;;;32.61;29.34
10464;BME280;5279;42.048;24.638;2022-08-01T10:59:15;97039.25;;;32.71;30.33
10464;BME280;5279;42.048;24.638;2022-08-01T11:01:56;97042.31;;;32.83;29.46
10464;BME280;5279;42.048;24.638;2022-08-01T11:04:33;97035.84;;;32.93;29.21
10464;BME280;5279;42.048;24.638;2022-08-01T11:07:15;97037.00;;;33.06;27.52
10464;BME280;5279;42.048;24.638;2022-08-01T11:09:44;97032.28;;;33.25;28.79
10464;BME280;5279;42.048;24.638;2022-08-01T11:12:14;97042.75;;;33.23;28.29
10464;BME280;5279;42.048;24.638;2022-08-01T11:15:18;97027.94;;;33.37;27.59
10464;BME280;5279;42.048;24.638;2022-08-01T11:17:51;97026.69;;;33.57;29.52
10464;BME280;5279;42.048;24.638;2022-08-01T11:20:20;97026.41;;;33.31;26.57
10464;BME280;5279;42.048;24.638;2022-08-01T11:23:23;97028.84;;;33.33;29.32
10464;BME280;5279;42.048;24.638;2022-08-01T11:26:09;97024.16;;;33.33;28.37
10464;BME280;5279;42.048;24.638;2022-08-01T11:28:36;97017.94;;;33.28;27.32
10464;BME280;5279;42.048;24.638;2022-08-01T11:31:32;97023.44;;;33.41;27.90
10464;BME280;5279;42.048;24.638;2022-08-01T11:33:59;97011.13;;;33.25;27.77
10464;BME280;5279;42.048;24.638;2022-08-01T11:36:27;97025.97;;;33.24;28.76
10464;BME280;5279;42.048;24.638;2022-08-01T11:39:16;97013.38;;;32.91;27.35
10464;BME280;5279;42.048;24.638;2022-08-01T11:41:46;97028.88;;;33.00;28.06
10464;BME280;5279;42.048;24.638;2022-08-01T11:44:15;97015.78;;;33.11;28.89
10464;BME280;5279;42.048;24.638;2022-08-01T11:47:02;97022.19;;;33.20;26.64
10464;BME280;5279;42.048;24.638;2022-08-01T11:49:44;97005.00;;;33.15;28.99
10464;BME280;5279;42.048;24.638;2022-08-01T11:52:15;97015.50;;;33.26;29.27
10464;BME280;5279;42.048;24.638;2022-08-01T11:54:46;97013.47;;;33.18;27.34
10464;BME280;5279;42.048;24.638;2022-08-01T11:57:17;97015.81;;;32.79;27.63
10464;BME280;5279;42.048;24.638;2022-08-01T11:59:46;97008.88;;;32.68;28.28
10464;BME280;5279;42.048;24.638;2022-08-01T12:02:26;97000.22;;;32.74;28.53
10464;BME280;5279;42.048;24.638;2022-08-01T12:04:55;97006.84;;;32.87;28.51
10464;BME280;5279;42.048;24.638;2022-08-01T12:07:24;96982.38;;;32.90;27.38
10464;BME280;5279;42.048;24.638;2022-08-01T12:09:59;97000.75;;;33.22;30.00
10464;BME280;5279;42.048;24.638;2022-08-01T12:12:28;97003.78;;;33.21;27.55
10464;BME280;5279;42.048;24.638;2022-08-01T12:14:56;97004.41;;;33.18;26.88
10464;BME280;5279;42.048;24.638;2022-08-01T12:17:37;96998.97;;;32.99;26.02
10464;BME280;5279;42.048;24.638;2022-08-01T12:20:07;96998.34;;;33.02;27.26
10464;BME280;5279;42.048;24.638;2022-08-01T12:22:35;96999.63;;;33.10;26.36
10464;BME280;5279;42.048;24.638;2022-08-01T12:25:06;96994.56;;;33.30;26.00
10464;BME280;5279;42.048;24.638;2022-08-01T12:27:33;96994.97;;;33.37;26.87
10464;BME280;5279;42.048;24.638;2022-08-01T12:30:04;96994.34;;;33.40;28.26
10464;BME280;5279;42.048;24.638;2022-08-01T12:32:33;96988.25;;;33.43;26.87
10464;BME280;5279;42.048;24.638;2022-08-01T12:35:05;97005.47;;;33.03;26.68
10464;BME280;5279;42.048;24.638;2022-08-01T12:37:35;96996.13;;;33.04;26.70
10464;BME280;5279;42.048;24.638;2022-08-01T12:40:09;96998.81;;;33.09;27.02
10464;BME280;5279;42.048;24.638;2022-08-01T12:42:37;97006.69;;;32.97;27.12
10464;BME280;5279;42.048;24.638;2022-08-01T12:45:07;97002.88;;;33.12;26.58
10464;BME280;5279;42.048;24.638;2022-08-01T12:47:35;97000.59;;;33.00;26.20
10464;BME280;5279;42.048;24.638;2022-08-01T12:50:05;96990.47;;;33.14;25.78
10464;BME280;5279;42.048;24.638;2022-08-01T12:52:33;96985.50;;;33.16;27.29
10464;BME280;5279;42.048;24.638;2022-08-01T12:55:12;96980.22;;;33.33;26.74
10464;BME280;5279;42.048;24.638;2022-08-01T12:57:41;96992.59;;;33.44;26.20
10464;BME280;5279;42.048;24.638;2022-08-01T13:00:12;96990.69;;;33.45;25.58
10464;BME280;5279;42.048;24.638;2022-08-01T13:02:40;96987.22;;;33.26;26.38
10464;BME280;5279;42.048;24.638;2022-08-01T13:05:10;96984.75;;;33.11;26.12
10464;BME280;5279;42.048;24.638;2022-08-01T13:07:43;96985.38;;;33.35;27.82
10464;BME280;5279;42.048;24.638;2022-08-01T16:40:53;96989.25;;;28.40;39.81
10464;BME280;5279;42.048;24.638;2022-08-01T16:43:21;96997.44;;;28.35;40.28
10464;BME280;5279;42.048;24.638;2022-08-01T16:45:48;96993.59;;;28.15;41.95